createdAt,value
2023-04-16T00:02:12.768Z,5.69
2023-04-16T00:05:15.168Z,5.68
2023-04-16T00:08:17.296Z,5.68
2023-04-16T00:11:19.302Z,5.72
2023-04-16T00:14:21.332Z,5.56
2023-04-16T00:17:23.567Z,5.63
2023-04-16T00:20:25.674Z,5.61
2023-04-16T00:23:27.817Z,5.56
2023-04-16T00:26:29.860Z,5.55
2023-04-16T00:29:32.437Z,5.51
2023-04-16T00:32:34.532Z,5.51
2023-04-16T00:35:36.775Z,5.47
2023-04-16T00:38:38.810Z,5.33
2023-04-16T00:41:41.162Z,5.24
2023-04-16T00:44:43.256Z,5.10
2023-04-16T00:47:45.785Z,4.90
2023-04-16T00:50:48.389Z,4.73
2023-04-16T00:53:50.948Z,4.74
2023-04-16T00:56:53.097Z,4.68
2023-04-16T00:59:55.851Z,4.66
2023-04-16T01:03:00.040Z,4.60
2023-04-16T01:06:02.563Z,4.58
2023-04-16T01:09:05.418Z,4.70
2023-04-16T01:12:07.579Z,4.65
2023-04-16T01:15:11.327Z,4.63
2023-04-16T01:18:16.728Z,4.63
2023-04-16T01:21:18.824Z,4.76
2023-04-16T01:24:21.036Z,4.87
2023-04-16T01:27:23.107Z,4.89
2023-04-16T01:30:25.464Z,4.93
2023-04-16T01:33:40.352Z,5.01
2023-04-16T01:36:42.746Z,5.03
2023-04-16T01:39:44.834Z,5.07
2023-04-16T01:42:47.014Z,5.11
2023-04-16T01:45:49.217Z,5.10
2023-04-16T01:48:54.856Z,5.13
2023-04-16T01:51:57.306Z,5.12
2023-04-16T01:54:59.532Z,5.14
2023-04-16T01:58:01.708Z,5.13
2023-04-16T02:01:08.254Z,5.15
2023-04-16T02:04:12.076Z,5.13
2023-04-16T02:07:14.755Z,5.10
2023-04-16T02:10:17.260Z,4.93
2023-04-16T02:13:19.964Z,4.78
2023-04-16T02:16:23.463Z,4.85
2023-04-16T02:19:28.470Z,4.82
2023-04-16T02:22:31.099Z,4.60
2023-04-16T02:25:33.217Z,4.54
2023-04-16T02:28:35.871Z,4.56
2023-04-16T02:31:38.558Z,4.56
2023-04-16T02:34:42.789Z,4.46
2023-04-16T02:37:45.523Z,4.40
2023-04-16T02:40:48.009Z,4.47
2023-04-16T02:43:52.052Z,4.47
2023-04-16T02:46:54.396Z,4.50
2023-04-16T02:49:56.805Z,4.51
2023-04-16T02:52:59.445Z,4.46
2023-04-16T02:56:01.733Z,4.47
2023-04-16T02:59:04.182Z,4.45
2023-04-16T03:02:06.507Z,4.41
2023-04-16T03:05:09.177Z,4.36
2023-04-16T03:08:11.941Z,4.19
2023-04-16T03:11:14.274Z,3.99
2023-04-16T03:14:16.399Z,3.95
2023-04-16T03:17:18.918Z,3.95
2023-04-16T03:20:21.219Z,4.15
2023-04-16T03:23:23.419Z,4.15
2023-04-16T03:26:26.336Z,4.30
2023-04-16T03:29:28.748Z,4.24
2023-04-16T03:32:32.018Z,4.19
2023-04-16T03:35:34.487Z,4.15
2023-04-16T03:38:37.949Z,4.10
2023-04-16T03:41:40.121Z,4.04
2023-04-16T03:44:42.268Z,3.96
2023-04-16T03:47:45.261Z,3.75
2023-04-16T03:50:50.812Z,3.82
2023-04-16T03:53:55.358Z,4.09
2023-04-16T03:56:58.363Z,4.18
2023-04-16T04:00:01.055Z,4.18
2023-04-16T04:03:05.718Z,4.25
2023-04-16T04:06:09.594Z,4.39
2023-04-16T04:09:12.266Z,4.37
2023-04-16T04:12:14.473Z,4.46
2023-04-16T04:15:18.896Z,4.38
2023-04-16T04:18:21.114Z,4.28
2023-04-16T04:21:23.217Z,4.14
2023-04-16T04:24:26.334Z,3.75
2023-04-16T04:27:28.507Z,3.85
2023-04-16T04:30:30.753Z,4.35
2023-04-16T04:33:32.934Z,4.56
2023-04-16T04:36:35.040Z,4.98
2023-04-16T04:39:37.403Z,5.04
2023-04-16T04:42:39.558Z,4.97
2023-04-16T04:45:41.928Z,5.04
2023-04-16T04:48:44.338Z,5.19
2023-04-16T04:51:46.521Z,5.96
2023-04-16T04:54:48.604Z,7.04
2023-04-16T04:57:50.734Z,7.68
2023-04-16T05:00:52.885Z,7.84
2023-04-16T05:03:55.145Z,8.76
2023-04-16T05:06:57.248Z,8.55
2023-04-16T05:09:59.325Z,8.43
2023-04-16T05:13:01.795Z,8.41
2023-04-16T05:16:04.007Z,7.94
2023-04-16T05:19:06.090Z,7.18
2023-04-16T05:22:08.156Z,7.04
2023-04-16T05:25:10.424Z,7.12
2023-04-16T05:28:12.463Z,7.08
2023-04-16T05:31:14.659Z,7.15
2023-04-16T05:34:16.775Z,7.25
2023-04-16T05:37:18.833Z,7.11
2023-04-16T05:40:21.006Z,6.92
2023-04-16T05:43:23.117Z,6.82
2023-04-16T05:46:25.253Z,6.64
2023-04-16T05:49:27.443Z,6.70
2023-04-16T05:52:29.489Z,6.91
2023-04-16T05:55:31.846Z,7.04
2023-04-16T05:58:33.909Z,7.28
2023-04-16T06:01:36.102Z,7.08
2023-04-16T06:04:38.202Z,7.70
2023-04-16T06:07:40.288Z,8.31
2023-04-16T06:10:42.355Z,8.87
2023-04-16T06:13:44.477Z,9.32
2023-04-16T06:16:46.937Z,9.51
2023-04-16T06:19:49.090Z,9.54
2023-04-16T06:22:51.165Z,9.29
2023-04-16T06:25:53.272Z,9.28
2023-04-16T06:28:55.609Z,9.29
2023-04-16T06:31:57.666Z,9.99
2023-04-16T06:34:59.798Z,11.09
2023-04-16T06:38:01.961Z,11.50
2023-04-16T06:41:05.348Z,11.66
2023-04-16T06:44:07.398Z,11.48
2023-04-16T06:47:09.596Z,11.18
2023-04-16T06:50:11.759Z,12.07
2023-04-16T06:53:13.884Z,12.95
2023-04-16T06:56:16.078Z,13.04
2023-04-16T06:59:18.277Z,13.50
2023-04-16T07:02:20.551Z,13.60
2023-04-16T07:05:22.676Z,14.15
2023-04-16T07:08:25.003Z,13.52
2023-04-16T07:11:27.463Z,13.81
2023-04-16T07:14:29.734Z,13.91
2023-04-16T07:17:31.793Z,13.98
2023-04-16T07:20:33.914Z,12.61
2023-04-16T07:23:36.022Z,11.77
2023-04-16T07:26:38.136Z,11.74
2023-04-16T07:29:40.975Z,12.24
2023-04-16T07:32:43.154Z,12.31
2023-04-16T07:35:45.468Z,12.69
2023-04-16T07:38:47.522Z,12.40
2023-04-16T07:41:49.619Z,13.12
2023-04-16T07:44:51.790Z,13.60
2023-04-16T07:47:53.890Z,13.72
2023-04-16T07:50:56.403Z,14.17
2023-04-16T07:53:58.482Z,14.12
2023-04-16T07:57:00.729Z,14.09
2023-04-16T08:00:05.074Z,14.65
2023-04-16T08:03:16.298Z,14.42
2023-04-16T08:06:18.516Z,14.55
2023-04-16T08:09:21.781Z,14.64
2023-04-16T08:12:24.117Z,15.27
2023-04-16T08:15:26.653Z,15.68
2023-04-16T08:18:28.756Z,15.87
2023-04-16T08:21:31.674Z,16.28
2023-04-16T08:24:33.725Z,16.70
2023-04-16T08:27:35.811Z,16.90
2023-04-16T08:30:37.881Z,17.43
2023-04-16T08:33:40.484Z,17.41
2023-04-16T08:36:42.608Z,17.51
2023-04-16T08:39:44.676Z,17.34
2023-04-16T08:42:53.677Z,17.00
2023-04-16T08:45:57.017Z,16.80
2023-04-16T08:48:59.299Z,16.47
2023-04-16T08:52:04.420Z,16.79
2023-04-16T08:55:14.586Z,17.06
2023-04-16T08:58:21.447Z,16.79
2023-04-16T09:01:24.821Z,17.05
2023-04-16T09:04:28.555Z,16.26
2023-04-16T09:07:32.086Z,16.16
2023-04-16T09:10:34.783Z,16.27
2023-04-16T09:13:37.501Z,16.80
2023-04-16T09:16:39.870Z,17.41
2023-04-16T09:19:42.099Z,18.14
2023-04-16T09:22:44.215Z,17.71
2023-04-16T09:25:46.500Z,17.02
2023-04-16T09:28:50.870Z,17.16
2023-04-16T09:32:06.167Z,17.58
2023-04-16T09:35:08.618Z,17.34
2023-04-16T09:38:10.696Z,17.35
2023-04-16T09:41:13.635Z,16.77
2023-04-16T09:44:15.843Z,17.19
2023-04-16T09:47:17.984Z,16.89
2023-04-16T09:50:20.241Z,15.78
2023-04-16T09:53:30.160Z,15.26
2023-04-16T09:56:32.287Z,15.20
2023-04-16T09:59:35.841Z,15.35
2023-04-16T10:02:41.725Z,15.60
2023-04-16T10:05:44.604Z,15.78
2023-04-16T10:08:50.557Z,15.93
2023-04-16T10:11:52.770Z,15.73
2023-04-16T10:14:54.844Z,15.86
2023-04-16T10:17:57.188Z,15.87
2023-04-16T10:20:59.989Z,15.57
2023-04-16T10:24:02.932Z,15.63
2023-04-16T10:27:05.094Z,15.74
2023-04-16T10:30:09.509Z,15.57
2023-04-16T10:33:11.846Z,15.47
2023-04-16T10:36:15.366Z,15.49
2023-04-16T10:39:18.647Z,15.35
2023-04-16T10:42:21.821Z,15.52
2023-04-16T10:45:37.691Z,15.49
2023-04-16T10:48:49.897Z,15.45
2023-04-16T10:52:00.074Z,15.18
2023-04-16T10:55:02.179Z,15.18
2023-04-16T10:58:24.183Z,15.47
2023-04-16T11:01:36.241Z,15.71
2023-04-16T11:04:39.809Z,15.88
2023-04-16T11:07:49.309Z,15.76
2023-04-16T11:10:51.800Z,16.08
2023-04-16T11:13:55.620Z,16.35
2023-04-16T11:16:57.717Z,16.78
2023-04-16T11:19:59.817Z,16.35
2023-04-16T11:23:01.963Z,16.84
2023-04-16T11:26:04.103Z,17.17
2023-04-16T11:29:13.401Z,17.03
2023-04-16T11:32:22.752Z,17.65
2023-04-16T11:35:25.061Z,18.34
2023-04-16T11:38:34.394Z,18.30
2023-04-16T11:41:42.427Z,18.31
2023-04-16T11:44:44.513Z,17.50
2023-04-16T11:47:47.433Z,17.53
2023-04-16T11:50:59.099Z,17.79
2023-04-16T11:54:02.105Z,18.33
2023-04-16T11:57:07.204Z,18.60
2023-04-16T12:00:13.864Z,18.42
2023-04-16T12:03:19.042Z,17.11
2023-04-16T12:06:22.726Z,17.75
2023-04-16T12:09:27.343Z,17.56
2023-04-16T12:12:31.630Z,17.27
2023-04-16T12:15:46.284Z,18.08
2023-04-16T12:19:02.128Z,18.20
2023-04-16T12:22:04.152Z,18.00
2023-04-16T12:25:12.024Z,18.19
2023-04-16T12:28:14.354Z,18.21
2023-04-16T12:31:36.654Z,17.46
2023-04-16T12:34:50.104Z,17.62
2023-04-16T12:37:52.305Z,16.98
2023-04-16T12:40:56.995Z,16.99
2023-04-16T12:44:06.761Z,17.32
2023-04-16T12:47:08.882Z,17.22
2023-04-16T12:50:11.170Z,17.17
2023-04-16T12:53:13.291Z,16.96
2023-04-16T12:56:15.696Z,17.28
2023-04-16T12:59:18.086Z,17.41
2023-04-16T13:02:20.270Z,17.19
2023-04-16T13:05:22.465Z,17.69
2023-04-16T13:08:24.565Z,18.00
2023-04-16T13:11:26.955Z,17.86
2023-04-16T13:14:28.995Z,18.00
2023-04-16T13:17:31.276Z,18.17
2023-04-16T13:20:33.378Z,17.86
2023-04-16T13:23:35.601Z,17.69
2023-04-16T13:26:37.731Z,17.71
2023-04-16T13:29:39.788Z,17.95
2023-04-16T13:32:41.912Z,17.59
2023-04-16T13:35:44.102Z,17.95
2023-04-16T13:38:46.158Z,18.10
2023-04-16T13:41:49.124Z,18.47
2023-04-16T13:44:54.181Z,18.08
2023-04-16T13:47:56.440Z,18.07
2023-04-16T13:50:58.590Z,17.19
2023-04-16T13:54:00.674Z,17.73
2023-04-16T13:57:02.864Z,17.67
2023-04-16T14:00:05.334Z,17.87
2023-04-16T14:03:07.792Z,17.80
2023-04-16T14:06:09.948Z,17.93
2023-04-16T14:09:12.108Z,17.84
2023-04-16T14:12:14.271Z,17.54
2023-04-16T14:15:16.541Z,17.46
2023-04-16T14:18:18.635Z,17.54
2023-04-16T14:21:20.968Z,17.75
2023-04-16T14:24:23.071Z,17.99
2023-04-16T14:27:25.217Z,18.40
2023-04-16T14:30:27.320Z,18.69
2023-04-16T14:33:29.445Z,18.78
2023-04-16T14:36:31.629Z,18.67
2023-04-16T14:39:33.834Z,18.33
2023-04-16T14:42:38.854Z,18.03
2023-04-16T14:45:41.229Z,17.84
2023-04-16T14:48:43.750Z,17.61
2023-04-16T14:51:46.604Z,17.64
2023-04-16T14:54:48.722Z,17.54
2023-04-16T14:57:51.332Z,17.51
2023-04-16T15:00:53.592Z,17.15
2023-04-16T15:03:56.618Z,17.17
2023-04-16T15:06:59.477Z,17.07
2023-04-16T15:10:02.022Z,17.41
2023-04-16T15:13:04.250Z,17.46
2023-04-16T15:16:08.643Z,17.66
2023-04-16T15:19:10.942Z,17.68
2023-04-16T15:22:15.284Z,17.44
2023-04-16T15:25:17.409Z,17.29
2023-04-16T15:28:19.915Z,17.16
2023-04-16T15:31:22.397Z,17.14
2023-04-16T15:34:24.949Z,17.14
2023-04-16T15:37:27.382Z,17.10
2023-04-16T15:40:30.405Z,16.93
2023-04-16T15:43:32.567Z,16.88
2023-04-16T15:46:34.798Z,16.91
2023-04-16T15:49:37.495Z,16.78
2023-04-16T15:52:40.654Z,16.61
2023-04-16T15:55:43.045Z,16.41
2023-04-16T15:58:45.193Z,16.38
2023-04-16T16:01:47.687Z,16.21
2023-04-16T16:04:49.882Z,16.17
2023-04-16T16:07:52.179Z,16.12
2023-04-16T16:10:54.843Z,16.04
2023-04-16T16:13:57.322Z,15.93
2023-04-16T16:16:59.857Z,15.86
2023-04-16T16:20:02.094Z,15.86
2023-04-16T16:23:04.666Z,15.81
2023-04-16T16:26:07.336Z,15.76
2023-04-16T16:29:09.839Z,15.76
2023-04-16T16:32:12.434Z,15.68
2023-04-16T16:35:14.842Z,15.61
2023-04-16T16:38:18.052Z,15.61
2023-04-16T16:41:20.751Z,15.51
2023-04-16T16:44:23.225Z,15.34
2023-04-16T16:47:25.747Z,15.29
2023-04-16T16:50:27.985Z,15.25
2023-04-16T16:53:30.171Z,15.23
2023-04-16T16:56:32.545Z,15.15
2023-04-16T16:59:34.997Z,15.13
2023-04-16T17:02:37.817Z,15.05
2023-04-16T17:05:40.825Z,15.04
2023-04-16T17:08:42.985Z,15.10
2023-04-16T17:11:45.100Z,14.99
2023-04-16T17:14:49.747Z,14.93
2023-04-16T17:17:51.935Z,14.80
2023-04-16T17:20:54.249Z,14.74
2023-04-16T17:23:58.379Z,14.63
2023-04-16T17:27:01.708Z,14.53
2023-04-16T17:30:05.615Z,14.41
2023-04-16T17:33:07.791Z,14.33
2023-04-16T17:36:57.671Z,14.25
2023-04-16T17:40:00.244Z,14.19
2023-04-16T17:43:02.734Z,14.19
2023-04-16T17:46:05.098Z,14.07
2023-04-16T17:49:36.782Z,14.01
2023-04-16T17:52:39.526Z,13.93
2023-04-16T17:55:49.864Z,13.88
2023-04-16T17:58:52.363Z,13.83
2023-04-16T18:01:54.912Z,13.77
2023-04-16T18:04:57.306Z,13.64
2023-04-16T18:07:59.739Z,13.52
2023-04-16T18:11:05.699Z,13.45
2023-04-16T18:14:09.928Z,13.32
2023-04-16T18:17:13.389Z,13.23
2023-04-16T18:20:19.364Z,13.12
2023-04-16T18:23:21.593Z,13.01
2023-04-16T18:26:25.295Z,13.00
2023-04-16T18:29:27.519Z,12.91
2023-04-16T18:32:31.250Z,13.02
2023-04-16T18:35:37.261Z,13.04
2023-04-16T18:38:52.952Z,13.03
2023-04-16T18:42:06.747Z,12.99
2023-04-16T18:45:14.054Z,12.95
2023-04-16T18:48:21.277Z,12.95
2023-04-16T18:51:23.462Z,12.91
2023-04-16T18:54:26.239Z,12.87
2023-04-16T18:57:28.385Z,12.89
2023-04-16T19:00:31.052Z,12.78
2023-04-16T19:03:37.782Z,12.68
2023-04-16T19:06:40.443Z,12.60
2023-04-16T19:09:45.313Z,12.49
2023-04-16T19:12:47.395Z,12.42
2023-04-16T19:15:49.605Z,12.38
2023-04-16T19:18:52.259Z,12.29
2023-04-16T19:21:54.523Z,12.28
2023-04-16T19:24:56.709Z,12.23
2023-04-16T19:27:58.805Z,12.11
2023-04-16T19:31:01.064Z,12.01
2023-04-16T19:34:04.098Z,12.01
2023-04-16T19:37:06.271Z,11.94
2023-04-16T19:40:08.709Z,11.93
2023-04-16T19:43:10.904Z,11.95
2023-04-16T19:46:13.243Z,11.95
2023-04-16T19:49:15.445Z,11.91
2023-04-16T19:52:17.872Z,11.89
2023-04-16T19:55:20.014Z,11.98
2023-04-16T19:58:22.086Z,11.89
2023-04-16T20:01:25.093Z,11.94
2023-04-16T20:04:27.436Z,12.00
2023-04-16T20:07:32.902Z,11.93
2023-04-16T20:10:35.213Z,11.92
2023-04-16T20:13:37.925Z,11.86
2023-04-16T20:16:40.966Z,11.77
2023-04-16T20:19:47.496Z,11.74
2023-04-16T20:22:49.893Z,11.75
2023-04-16T20:25:52.374Z,11.81
2023-04-16T20:28:54.598Z,11.87
2023-04-16T20:31:56.714Z,11.88
2023-04-16T20:34:58.822Z,11.89
2023-04-16T20:38:01.133Z,11.90
2023-04-16T20:41:12.590Z,11.88
2023-04-16T20:44:18.236Z,11.91
2023-04-16T20:47:22.084Z,11.90
2023-04-16T20:50:25.398Z,11.90
2023-04-16T20:53:28.049Z,11.88
2023-04-16T20:56:30.130Z,11.86
2023-04-16T20:59:32.183Z,11.82
2023-04-16T21:02:34.491Z,11.78
2023-04-16T21:05:36.952Z,11.71
2023-04-16T21:08:43.546Z,11.70
2023-04-16T21:11:45.906Z,11.75
2023-04-16T21:14:47.952Z,11.65
2023-04-16T21:17:50.126Z,11.61
2023-04-16T21:20:52.292Z,11.59
2023-04-16T21:23:54.457Z,11.52
2023-04-16T21:26:57.515Z,11.45
2023-04-16T21:30:00.420Z,11.44
2023-04-16T21:33:03.374Z,11.40
2023-04-16T21:36:05.700Z,11.39
2023-04-16T21:39:07.920Z,11.35
2023-04-16T21:42:10.135Z,11.33
2023-04-16T21:45:12.637Z,11.33
2023-04-16T21:48:14.723Z,11.23
2023-04-16T21:51:18.213Z,11.22
2023-04-16T21:54:20.687Z,11.24
2023-04-16T21:57:22.736Z,11.20
2023-04-16T22:00:24.882Z,11.28
2023-04-16T22:03:28.190Z,11.31
2023-04-16T22:06:30.512Z,11.37
2023-04-16T22:09:32.574Z,11.38
2023-04-16T22:12:37.918Z,11.29
2023-04-16T22:15:40.703Z,11.26
2023-04-16T22:18:43.010Z,11.20
2023-04-16T22:21:45.423Z,11.21
2023-04-16T22:24:47.521Z,11.26
2023-04-16T22:27:49.606Z,11.27
2023-04-16T22:30:51.724Z,11.31
2023-04-16T22:33:54.019Z,11.32
2023-04-16T22:36:56.351Z,11.34
2023-04-16T22:39:58.457Z,11.36
2023-04-16T22:43:03.265Z,11.40
2023-04-16T22:46:06.576Z,11.43
2023-04-16T22:49:10.479Z,11.39
2023-04-16T22:52:12.720Z,11.40
2023-04-16T22:55:14.853Z,11.41
2023-04-16T22:58:17.127Z,11.41
2023-04-16T23:01:19.334Z,11.48
2023-04-16T23:04:21.531Z,11.51
2023-04-16T23:07:23.616Z,11.54
2023-04-16T23:10:25.661Z,11.55
2023-04-16T23:13:27.788Z,11.55
2023-04-16T23:16:29.879Z,11.54
2023-04-16T23:19:32.360Z,11.52
2023-04-16T23:22:34.539Z,11.55
2023-04-16T23:25:36.774Z,11.57
2023-04-16T23:28:38.878Z,11.59
2023-04-16T23:31:41.190Z,11.55
2023-04-16T23:34:43.352Z,11.53
2023-04-16T23:37:45.559Z,11.49
2023-04-16T23:40:47.592Z,11.42
2023-04-16T23:43:49.613Z,11.43
2023-04-16T23:46:51.754Z,11.40
2023-04-16T23:49:53.856Z,11.41
2023-04-16T23:52:55.959Z,11.44
2023-04-16T23:55:58.086Z,11.46
2023-04-16T23:59:00.225Z,11.50
